Home > Products > Valid Products > TAF

000
FTUS43 KLSX 291100
TAFSTL
TAF
KSTL 291120Z 2912/3018 28004KT P6SM SKC
     FM291500 31008KT P6SM SCT040
      TEMPO 2918/2922 BKN050
     FM300100 VRB04KT P6SM SKC=



000
FTUS43 KLSX 291100
TAFSUS
TAF
KSUS 291120Z 2912/3012 VRB02KT P6SM SKC
      TEMPO 2912/2913 3SM BR
     FM291500 31007KT P6SM SCT040
      TEMPO 2918/2922 BKN050
     FM300100 VRB03KT P6SM SKC=



000
FTUS43 KLSX 291100
TAFCOU
TAF
KCOU 291120Z 2912/3012 30004KT P6SM SKC
     FM291500 31008KT P6SM BKN040
     FM300100 VRB03KT P6SM SKC=



000
FTUS43 KLSX 291100
TAFUIN
TAF
KUIN 291120Z 2912/3012 29004KT P6SM SKC
     FM291500 30008KT P6SM SCT040
      TEMPO 2918/2922 BKN050
     FM300100 VRB04KT P6SM SKC=



000
FTUS43 KLSX 291000 AAA
TAFSUS
TAF AMD
KSUS 291013Z 2910/3006 VRB02KT P6SM SKC
      TEMPO 2910/2913 3SM BR
     FM291500 31006KT P6SM SCT050
     FM300100 VRB03KT P6SM SKC=



000
FTUS43 KLSX 290800 AAA
TAFSTL
TAF AMD
KSTL 290850Z 2909/3012 VRB04KT P6SM SKC
     FM291500 31008KT P6SM SCT040
     FM300100 VRB04KT P6SM SKC=



000
FTUS43 KLSX 290500
TAFSTL
TAF
KSTL 290530Z 2906/3012 VRB04KT P6SM SKC
     FM291500 31006KT P6SM SCT050
     FM300100 VRB04KT P6SM SKC=



000
FTUS43 KLSX 290500
TAFSUS
TAF
KSUS 290530Z 2906/3006 VRB02KT P6SM SKC
     FM291500 31006KT P6SM SCT050
     FM300100 VRB03KT P6SM SKC=



000
FTUS43 KLSX 290500
TAFUIN
TAF
KUIN 290530Z 2906/3006 VRB03KT P6SM SKC
     FM291500 31006KT P6SM SCT050
     FM300100 VRB04KT P6SM SKC=



000
FTUS43 KLSX 290500
TAFCOU
TAF
KCOU 290530Z 2906/3006 VRB04KT P6SM SKC
     FM291600 31006KT P6SM SCT050
     FM300100 VRB03KT P6SM SKC=



000
FTUS43 KLSX 290300 AAA
TAFSTL
TAF AMD
KSTL 290305Z 2903/3006 VRB04KT P6SM SKC
     FM291500 30006KT P6SM SCT050
     FM300100 VRB04KT P6SM SKC=



000
FTUS43 KLSX 282300
TAFSUS
TAF
KSUS 282320Z 2900/2924 33012KT P6SM SCT040
     FM290200 VRB02KT P6SM SKC
     FM291500 30006KT P6SM SCT050=



000
FTUS43 KLSX 282300
TAFCOU
TAF
KCOU 282320Z 2900/2924 36012KT P6SM SCT050
     FM290200 VRB04KT P6SM SKC
     FM291600 30006KT P6SM SCT050=



000
FTUS43 KLSX 282300
TAFSTL
TAF
KSTL 282320Z 2900/3006 34012KT P6SM SCT050
     FM290200 VRB04KT P6SM SKC
     FM291500 30006KT P6SM SCT050
     FM300100 VRB04KT P6SM SKC=



000
FTUS43 KLSX 282300
TAFUIN
TAF
KUIN 282320Z 2900/2924 35013KT P6SM SCT050
     FM290200 VRB03KT P6SM SKC
     FM291500 29006KT P6SM SCT050=



000
FTUS43 KLSX 282000 AAA
TAFSTL
TAF AMD
KSTL 282052Z 2821/2924 34012G18KT P6SM BKN040
     FM290200 01005KT P6SM SKC
     FM291500 30006KT P6SM SCT050=



000
FTUS43 KLSX 281700
TAFUIN
TAF
KUIN 281729Z 2818/2918 35010G18KT P6SM SCT040
     FM290200 VRB03KT P6SM SKC
     FM290900 29006KT P6SM SKC=



000
FTUS43 KLSX 281700
TAFSUS
TAF
KSUS 281729Z 2818/2918 33010G18KT P6SM BKN040
     FM290200 VRB02KT P6SM SKC
     FM291500 30006KT P6SM SCT050=



000
FTUS43 KLSX 281700
TAFSTL
TAF
KSTL 281729Z 2818/2924 34012G18KT P6SM BKN040
     FM290200 01005KT P6SM SKC
     FM291500 30006KT P6SM SCT050=



000
FTUS43 KLSX 281700
TAFCOU
TAF
KCOU 281729Z 2818/2918 35010G18KT P6SM BKN050
     FM290200 VRB04KT P6SM SKC
     FM291600 30006KT P6SM SCT050=



000
FTUS43 KLSX 281500 AAB
TAFSTL
TAF AMD
KSTL 281540Z 2816/2918 34010KT P6SM BKN025
     FM281800 34012G18KT P6SM BKN040
     FM290200 01006KT P6SM SKC
     FM291500 30006KT P6SM SCT050=



000
FTUS43 KLSX 281500 AAB
TAFSUS
TAF AMD
KSUS 281528Z 2815/2912 01010KT P6SM BKN022
     FM281800 33010G18KT P6SM BKN040
     FM290200 VRB02KT P6SM SKC=



000
FTUS43 KLSX 281500 AAC
TAFUIN
TAF AMD
KUIN 281525Z 2815/2912 01010KT P6SM BKN025
     FM281800 35010G18KT P6SM SCT040
     FM290200 VRB03KT P6SM SKC
     FM290900 29006KT P6SM SKC=



000
FTUS43 KLSX 281400 AAA
TAFSUS
TAF AMD
KSUS 281405Z 2814/2912 34010KT P6SM SCT015
      TEMPO 2814/2816 BKN015
     FM281700 33010G18KT P6SM BKN050
     FM290200 VRB02KT P6SM SKC=



000
FTUS43 KLSX 281400 AAA
TAFSTL
TAF AMD
KSTL 281405Z 2814/2918 34010KT P6SM SCT015
      TEMPO 2814/2816 BKN015
     FM281700 34012G18KT P6SM BKN050
     FM290200 01006KT P6SM SKC
     FM291500 30006KT P6SM SCT050=



000
FTUS43 KLSX 281300 AAB
TAFUIN
TAF AMD
KUIN 281353Z 2814/2912 34008KT P6SM SCT015
      TEMPO 2814/2815 BKN015
     FM281500 34010G18KT P6SM BKN035
     FM282000 35010G18KT P6SM SCT050
     FM290200 VRB03KT P6SM SKC
     FM290900 29006KT P6SM SKC=



000
FTUS43 KLSX 281300 AAA
TAFUIN
TAF AMD
KUIN 281306Z 2813/2912 33008KT P6SM SKC
      TEMPO 2813/2815 BKN025
     FM281500 34010G18KT P6SM BKN050
     FM282000 35010G18KT P6SM SCT050
     FM290200 VRB03KT P6SM SKC
     FM290900 29006KT P6SM SKC=



000
FTUS43 KLSX 281100
TAFCOU
TAF
KCOU 281120Z 2812/2912 33008KT P6SM SKC
     FM281500 35010G18KT P6SM SCT050
     FM290200 VRB04KT P6SM SKC=



000
FTUS43 KLSX 281100
TAFUIN
TAF
KUIN 281120Z 2812/2912 32008KT P6SM SKC
     FM281500 34010G18KT P6SM BKN050
     FM282000 35010G18KT P6SM SCT050
     FM290200 VRB03KT P6SM SKC
     FM290900 29006KT P6SM SKC=



000
FTUS43 KLSX 281100
TAFSUS
TAF
KSUS 281120Z 2812/2912 31007KT P6SM SKC
     FM281500 33010G18KT P6SM BKN050
     FM282100 34012G18KT P6SM SCT050
     FM290200 VRB02KT P6SM SKC=



000
FTUS43 KLSX 281100
TAFSTL
TAF
KSTL 281120Z 2812/2918 32009KT P6SM SKC
     FM281500 33010G18KT P6SM BKN050
     FM282100 34012G18KT P6SM SCT050
     FM290200 01006KT P6SM SKC
     FM291500 30006KT P6SM SCT050=



000
FTUS43 KLSX 280900 AAA
TAFSTL
TAF AMD
KSTL 280912Z 2809/2912 32009KT P6SM SKC
     FM281500 33010G18KT P6SM BKN050
     FM282100 34010G18KT P6SM SCT050
     FM290200 01006KT P6SM SKC=



000
FTUS43 KLSX 280500
TAFSUS
TAF
KSUS 280520Z 2806/2906 31007KT P6SM SKC
     FM281500 33010G18KT P6SM BKN050
     FM282100 34010G18KT P6SM SCT050
     FM290200 VRB02KT P6SM SKC=



000
FTUS43 KLSX 280500
TAFCOU
TAF
KCOU 280520Z 2806/2906 33008KT P6SM SKC
     FM281500 35010G18KT P6SM SCT050
     FM290200 VRB04KT P6SM SKC=



000
FTUS43 KLSX 280500
TAFSTL
TAF
KSTL 280520Z 2806/2912 32009KT P6SM SKC
     FM281500 33010G18KT P6SM BKN050
     FM282100 34010G18KT P6SM SCT050
     FM290200 01006KT P6SM SKC=



000
FTUS43 KLSX 280500
TAFUIN
TAF
KUIN 280520Z 2806/2906 32008KT P6SM SKC
     FM281500 34010G18KT P6SM BKN050
     FM282000 35010G18KT P6SM SCT050
     FM290200 VRB03KT P6SM SKC=



000
FTUS43 KLSX 280200 AAB
TAFSTL
TAF AMD
KSTL 280256Z 2803/2906 32009KT P6SM SCT250
     FM281500 33010G18KT P6SM SCT050
     FM290200 35007KT P6SM SKC=



000
FTUS43 KLSX 280100 AAA
TAFSTL
TAF AMD
KSTL 280157Z 2802/2906 34010G18KT P6SM FEW060 SCT250
     FM280300 32009KT P6SM SCT250
     FM281500 33010G18KT P6SM SCT050
     FM290200 35007KT P6SM SKC=



000
FTUS43 KLSX 280000 AAA
TAFSUS
TAF AMD
KSUS 280059Z 2801/2824 31008KT P6SM SKC
     FM281500 33010G18KT P6SM SCT050=



000
FTUS43 KLSX 272300
TAFUIN
TAF
KUIN 272320Z 2800/2824 32015G25KT P6SM SCT060
     FM280200 32008KT P6SM SKC
     FM280600 32008KT P6SM SCT040
     FM281500 34010G18KT P6SM BKN040=



000
FTUS43 KLSX 272300
TAFCOU
TAF
KCOU 272320Z 2800/2824 31012G22KT P6SM SCT060
     FM280200 31008KT P6SM SKC
     FM281500 34010G18KT P6SM SCT050=



000
FTUS43 KLSX 272300
TAFSUS
TAF
KSUS 272320Z 2800/2824 31012G22KT P6SM SCT035
     FM280200 31008KT P6SM SKC
     FM281500 33010G18KT P6SM SCT050=



000
FTUS43 KLSX 272300
TAFSTL
TAF
KSTL 272320Z 2800/2906 31014G22KT P6SM FEW060 SCT250
     FM280200 31009KT P6SM SCT250
     FM281500 33010G18KT P6SM SCT050
     FM290200 35007KT P6SM SKC=



000
FTUS43 KLSX 272000 AAA
TAFSTL
TAF AMD
KSTL 272054Z 2721/2824 31014G22KT P6SM FEW060 SCT250
     FM280200 31010KT P6SM SCT250
     FM280800 31008KT P6SM SCT025
     FM281400 33010G18KT P6SM SKC=



000
FTUS43 KLSX 271700
TAFUIN
TAF
KUIN 271731Z 2718/2818 31015G25KT P6SM FEW030
     FM272100 31015G25KT P6SM SCT025
     FM280200 31008KT P6SM SKC
     FM280600 32008KT P6SM SCT025=



000
FTUS43 KLSX 271700
TAFSTL
TAF
KSTL 271731Z 2718/2824 31014G22KT P6SM SCT030
     FM280200 31010KT P6SM SKC
     FM280800 31008KT P6SM SCT025
     FM281400 33010G18KT P6SM SKC=



000
FTUS43 KLSX 271700
TAFCOU
TAF
KCOU 271731Z 2718/2818 31012G22KT P6SM SCT040
     FM280200 31006KT P6SM SKC
     FM280900 32006KT P6SM SCT025=



000
FTUS43 KLSX 271700
TAFSUS
TAF
KSUS 271731Z 2718/2818 31012G22KT P6SM SCT035
     FM280200 31010KT P6SM SKC
     FM280800 31008KT P6SM SCT025
     FM281400 33010G18KT P6SM SKC=



000
FTUS43 KLSX 271500 AAA
TAFUIN
TAF AMD
KUIN 271500Z 2715/2812 30010KT P6SM SCT020
     FM271600 31016G24KT P6SM SCT040
     FM280200 31008KT P6SM SKC=



000
FTUS43 KLSX 271400 AAB
TAFSTL
TAF AMD
KSTL 271458Z 2715/2818 30014KT P6SM BKN017
     FM271600 31014KT P6SM SCT025
     FM271900 31016G24KT P6SM SCT040
     FM280200 31006KT P6SM SKC=



000
FTUS43 KLSX 271400 AAC
TAFCOU
TAF AMD
KCOU 271455Z 2715/2812 32012KT P6SM SCT040
     FM271600 32015G22KT P6SM SCT040
     FM280200 31006KT P6SM SKC=



000
FTUS43 KLSX 271400 AAB
TAFSUS
TAF AMD
KSUS 271453Z 2715/2812 31014KT P6SM SCT022 SCT040
      TEMPO 2715/2716 BKN022
     FM271900 31014G22KT P6SM SCT040
     FM280200 31004KT P6SM SKC=



000
FTUS43 KLSX 271300 AAA
TAFSUS
TAF AMD
KSUS 271335Z 2714/2812 30010KT P6SM SCT015 SCT040
      TEMPO 2714/2715 BKN015
     FM271900 31014G22KT P6SM SCT040
     FM280200 31004KT P6SM SKC=



000
FTUS43 KLSX 271300 AAA
TAFSTL
TAF AMD
KSTL 271333Z 2714/2818 30014KT P6SM SCT012 SCT040
      TEMPO 2714/2715 BKN012
     FM271900 31016G24KT P6SM SCT040
     FM280200 31006KT P6SM SKC=



000
FTUS43 KLSX 271300 AAB
TAFCOU
TAF AMD
KCOU 271322Z 2713/2812 30010KT P6SM SCT010 SCT040
      TEMPO 2713/2715 BKN010
     FM271600 32015G22KT P6SM SCT040
     FM280200 31006KT P6SM SKC=



000
FTUS43 KLSX 271200 AAA
TAFCOU
TAF AMD
KCOU 271249Z 2713/2812 30010KT P6SM SCT040
     FM271600 32015G22KT P6SM SCT040
     FM280200 31006KT P6SM SKC=



000
FTUS43 KLSX 271100
TAFSTL
TAF
KSTL 271120Z 2712/2818 30010KT P6SM SCT040
     FM271900 31016G24KT P6SM SCT040
     FM280200 31006KT P6SM SKC=



000
FTUS43 KLSX 271100
TAFCOU
TAF
KCOU 271120Z 2712/2812 26007KT P6SM FEW040
     FM271600 32015G22KT P6SM SCT040
     FM280200 31006KT P6SM SKC=



000
FTUS43 KLSX 271100
TAFSUS
TAF
KSUS 271120Z 2712/2812 30010KT P6SM SCT040
     FM271900 31014G22KT P6SM SCT040
     FM280200 31004KT P6SM SKC=



000
FTUS43 KLSX 271100
TAFUIN
TAF
KUIN 271120Z 2712/2812 31008KT 1SM BR OVC006
      TEMPO 2712/2713 1/2SM FG OVC002
     FM271300 30010KT 5SM BR BKN020
      TEMPO 2713/2715 3SM BR BKN010
     FM271600 31016G24KT P6SM SCT040
     FM280200 31008KT P6SM SKC=



000
FTUS43 KLSX 271100 AAC
TAFUIN
TAF AMD
KUIN 271106Z 2711/2806 31008KT 1/4SM FG VV002
     FM271300 30012KT P6SM SCT040
      TEMPO 2713/2715 3SM BR BKN020
     FM271600 31016G24KT P6SM SCT040
     FM280200 31008KT P6SM SKC=



000
FTUS43 KLSX 270900 AAA
TAFSUS
TAF AMD
KSUS 270949Z 2710/2806 26008KT P6SM SCT080
     FM271200 30010KT P6SM SCT040
     FM271900 32012KT P6SM SCT040=



000
FTUS43 KLSX 270900 AAA
TAFCOU
TAF AMD
KCOU 270948Z 2710/2806 26007KT P6SM FEW080
     FM271600 32012KT P6SM SCT040=



000
FTUS43 KLSX 270800 AAA
TAFSTL
TAF AMD
KSTL 270850Z 2709/2812 25006KT P6SM SCT080
     FM271200 30010KT P6SM SCT040
     FM271900 32012KT P6SM SCT040=



000
FTUS43 KLSX 270800 AAB
TAFUIN
TAF AMD
KUIN 270811Z 2708/2806 VRB03KT 1/4SM FG VV002
      TEMPO 2708/2711 1/2SM FG VV002
     FM271100 30010KT P6SM SCT080
     FM271600 30012KT P6SM SCT040=



000
FTUS43 KLSX 270700 AAA
TAFUIN
TAF AMD
KUIN 270726Z 2707/2806 35006KT 1SM BR BKN002 OVC060
      TEMPO 2707/2711 35006KT 1/2SM FG OVC002
     FM271100 30010KT P6SM SCT080
     FM271600 30012KT P6SM SCT040=



000
FTUS43 KLSX 270500
TAFCOU
TAF
KCOU 270520Z 2706/2806 VRB03KT P6SM SCT120
     FM270900 VRB04KT 5SM BR VCTS BKN050CB
     FM271000 31008KT P6SM SCT040
     FM271600 32012KT P6SM SCT040=



000
FTUS43 KLSX 270500
TAFUIN
TAF
KUIN 270520Z 2706/2806 VRB04KT 5SM BR SCT120
     FM270900 VRB04KT 5SM BR VCTS BKN050CB
     FM271000 30010KT P6SM SCT080
     FM271600 30012KT P6SM SCT040=



000
FTUS43 KLSX 270500
TAFSUS
TAF
KSUS 270520Z 2706/2806 VRB04KT P6SM SCT120
     FM271000 21007KT P6SM VCTS BKN050CB
     FM271200 30010KT P6SM SCT040
     FM271900 32012KT P6SM SCT040=



000
FTUS43 KLSX 270500
TAFSTL
TAF
KSTL 270520Z 2706/2812 VRB04KT P6SM SCT120
     FM271000 21007KT P6SM VCTS BKN050CB
     FM271200 30010KT P6SM SCT040
     FM271900 32012KT P6SM SCT040=



000
FTUS43 KLSX 270300 AAA
TAFSTL
TAF AMD
KSTL 270302Z 2703/2806 VRB04KT P6SM SCT120
     FM271000 21007KT P6SM VCTS BKN050CB
     FM271200 30012KT P6SM SCT040
     FM271900 32012KT P6SM SCT040=



000
FTUS43 KLSX 262300
TAFUIN
TAF
KUIN 262339Z 2700/2724 23006KT 3SM -RA BR BKN080
     FM270200 21006KT 5SM BR SCT050 OVC080
     FM270900 30010KT P6SM SCT080
     FM271400 30012KT P6SM SCT040=



000
FTUS43 KLSX 262300
TAFCOU
TAF
KCOU 262339Z 2700/2724 19007KT P6SM BKN080
     FM270200 23007KT P6SM SCT080
     FM271000 31008KT P6SM SCT040
     FM271500 32012KT P6SM SCT040=



000
FTUS43 KLSX 262300
TAFSUS
TAF
KSUS 262339Z 2700/2724 30004KT P6SM VCSH BKN120
     FM270200 21007KT P6SM BKN120
     FM271200 30012KT P6SM SCT040
     FM271900 32012KT P6SM SCT040=



000
FTUS43 KLSX 262300
TAFSTL
TAF
KSTL 262339Z 2700/2806 30007KT P6SM VCSH OVC120
     FM270200 21007KT P6SM SCT150
     FM271200 30012KT P6SM SCT040
     FM271900 32012KT P6SM SCT040=



000
FTUS43 KLSX 262100 AAB
TAFSUS
TAF AMD
KSUS 262156Z 2622/2718 26014KT P6SM VCSH SCT100 OVC150
     FM270200 20008KT P6SM SCT200
     FM271200 30012KT P6SM SCT040=



000
FTUS43 KLSX 262100 AAB
TAFSTL
TAF AMD
KSTL 262155Z 2622/2724 29012KT P6SM VCSH SCT100 OVC150
     FM270200 20008KT P6SM SCT200
     FM271200 30012KT P6SM SCT040=



000
FTUS43 KLSX 262100 AAB
TAFCOU
TAF AMD
KCOU 262155Z 2622/2718 21007KT P6SM -SHRA BKN070
     FM270000 20008KT P6SM SKC
     FM271200 31008KT P6SM SCT040=



000
FTUS43 KLSX 262100 AAB
TAFUIN
TAF AMD
KUIN 262115Z 2621/2718 30005KT P6SM BKN080
      TEMPO 2621/2623 5SM -TSRA OVC035CB
     FM270000 21006KT P6SM BKN250
     FM270800 30010KT P6SM SCT040=



000
FTUS43 KLSX 262000 CCA
TAFSUS
TAF COR
KSUS 262037Z 2621/2718 30014KT P6SM SCT120 OVC200
     FM262300 26014KT P6SM VCTS SCT060CB BKN250
     FM270200 20008KT P6SM SCT200
     FM271200 30012KT P6SM SCT040=



000
FTUS43 KLSX 262000 AAA
TAFSUS
TAF AMD
KSUS 262035Z 2621/2718 30014KT P6SM SCT250
     FM262300 26014KT P6SM VCTS SCT060CB BKN250
     FM270200 20008KT P6SM SCT200
     FM271200 30012KT P6SM SCT040=



000
FTUS43 KLSX 262000 AAA
TAFSTL
TAF AMD
KSTL 262034Z 2621/2724 29014KT P6SM SCT120 BKN200
     FM262300 23014KT P6SM VCTS SCT060CB BKN250
     FM270200 20008KT P6SM SCT200
     FM271200 30012KT P6SM SCT040=



000
FTUS43 KLSX 262000 AAA
TAFCOU
TAF AMD
KCOU 262001Z 2620/2718 27005KT P6SM -SHRA BKN100
     FM262200 21007KT P6SM BKN150
     FM270300 24008KT P6SM SKC
     FM271200 31008KT P6SM SCT040=



000
FTUS43 KLSX 261800 AAA
TAFUIN
TAF AMD
KUIN 261850Z 2619/2718 24008KT P6SM OVC035
      TEMPO 2619/2621 4SM TSRA OVC035CB
     FM262100 23012KT P6SM BKN040
      TEMPO 2621/2623 VRB20G30KT 4SM TSRA OVC035CB
     FM270000 21006KT P6SM BKN250
     FM270800 30010KT P6SM SCT040=



000
FTUS43 KLSX 261700
TAFSUS
TAF
KSUS 261736Z 2618/2718 24012G20KT P6SM SCT250
     FM262200 23014KT P6SM VCTS SCT060CB BKN250
     FM270200 20008KT P6SM SCT200
     FM271200 30012KT P6SM SCT040=



000
FTUS43 KLSX 261700
TAFUIN
TAF
KUIN 261736Z 2618/2718 23008KT P6SM BKN025
     FM262000 24008KT P6SM SCT070 BKN250
      TEMPO 2622/2624 VRB20G30KT 4SM TSRA OVC035CB
     FM270000 21006KT P6SM BKN250
     FM270800 30010KT P6SM SCT040=



000
FTUS43 KLSX 261700
TAFSTL
TAF
KSTL 261736Z 2618/2724 24012G20KT P6SM SCT250
     FM262200 23014KT P6SM VCTS SCT060CB BKN250
     FM270200 20008KT P6SM SCT200
     FM271200 30012KT P6SM SCT040=



000
FTUS43 KLSX 261700
TAFCOU
TAF
KCOU 261736Z 2618/2718 23012KT P6SM VCSH BKN100
      TEMPO 2618/2621 6SM -TSRA BKN060CB
     FM262200 21007KT P6SM BKN150
     FM270300 24008KT P6SM SKC
     FM271200 31008KT P6SM SCT040=



000
FTUS43 KLSX 261500 AAB
TAFCOU
TAF AMD
KCOU 261556Z 2616/2712 22012KT P6SM SCT250
     FM261900 23010KT P6SM VCTS BKN080CB
     FM262200 21007KT P6SM BKN150
     FM270300 24008KT P6SM SKC=



000
FTUS43 KLSX 261400 AAA
TAFSUS
TAF AMD
KSUS 261429Z 2614/2712 23008KT P6SM SCT100 BKN250
     FM262100 23010KT P6SM VCTS FEW060CB BKN250
     FM270100 23006KT P6SM SCT200=



000
FTUS43 KLSX 261400 AAA
TAFSTL
TAF AMD
KSTL 261425Z 2614/2718 23012KT P6SM SCT250
     FM262100 23012KT P6SM VCTS FEW060CB BKN250
     FM270100 23008KT P6SM SCT200
     FM271200 30012KT P6SM SCT040=



000
FTUS43 KLSX 261400 AAA
TAFCOU
TAF AMD
KCOU 261424Z 2614/2712 22012KT P6SM SCT250
     FM270300 24008KT P6SM SKC=



000
FTUS43 KLSX 261400 AAA
TAFUIN
TAF AMD
KUIN 261419Z 2614/2712 23008KT P6SM SCT250
     FM262000 24008KT P6SM VCTS SCT070CB BKN250
     FM270000 21006KT P6SM BKN250
     FM270800 29006KT P6SM SCT040=



    US Dept of Commerce
    National Oceanic and Atmospheric Administration
    National Weather Service
    1325 East West Highway
    Silver Spring, MD 20910
    Page Author: NWS Internet Services Team
Disclaimer
Information Quality
Credits
Glossary
Privacy Policy
Freedom of Information Act (FOIA)
About Us
Career Opportunities